Current | Forecast
Updated: 12:00 PM JST on December 13, 2017
Observed at Ishigakijima, Japan
Temperature 70°F
Humidity 73%
Dew Point 61°F
Wind NE at 24 mph
Pressure 30.12 in (Steady)
Conditions Mostly Cloudy
Visibility 6.2 miles
UV 4 out of 16
Clouds Mostly Cloudy (BKN) : 2500 ft
Mostly Cloudy (BKN) : 4000 ft
Yesterday's Maximum 72°F
Yesterday's Minimum 66°F approx.
Yesterday's Cooling Degree Days 4 approx.
Sunrise7:18 AM JST
Sunset5:56 PM JST
Moon Rise2:42 AM JST
Moon Set2:46 PM JST
Moon PhaseMoon Phase
Waning Crescent
Raw METARMETAR ROIG 130300Z 05021KT 9999 VCSH BKN025 BKN040 21/16 Q1020


Monday
. High: 80° F.
Tuesday
. High: 77° F.
Wednesday
. High: 78° F.
Thursday
. High: 79° F.
Friday
. High: 80° F.
Saturday
. High: 80° F.
Sunday
. High: 79° F.
Monday
. High: 80° F.

Units: English | Metric

Find the Weather for any City, State or Zipcode, or Country:

U.S. State List | Severe Weather | Tropical Storms | Ski Conditions
United States | Canada | Central America | South America | Asia | Europe | Australia | Africa | Islands

Weather Underground

© Copyright 2017
The Weather Company, LLC